Time;durP1;ratioP1;P1;durP2;ratioP2;P2;SDS_P1;SDS_P2;PMS_P1;PMS_P2;Temp;Humidity;BMP_temperature;BMP_pressure;BME280_temperature;BME280_humidity;BME280_pressure;Samples;Min_cycle;Max_cycle;Signal;HPM_P1;HPM_P2
2023/09/01 00:00:49;;;;;;;;;7.57;6.14;;;;;16.61;71.59;99739.00;6322634;20;3450254;-62
2023/09/01 00:03:19;;;;;;;;;6.60;6.60;;;;;16.39;72.36;99748.97;6333834;20;2735825;-65
2023/09/01 00:05:48;;;;;;;;;6.80;6.20;;;;;16.43;71.92;99744.19;6334461;20;2734726;-63
2023/09/01 00:08:16;;;;;;;;;5.00;5.00;;;;;15.94;73.69;99742.88;6312574;20;2737848;-63
2023/09/01 00:10:46;;;;;;;;;10.20;7.20;;;;;15.75;74.03;99748.94;6309738;20;2764877;-63
2023/09/01 00:13:17;;;;;;;;;6.43;6.43;;;;;15.89;73.62;99743.25;6322820;20;3453769;-63
2023/09/01 00:15:45;;;;;;;;;9.00;7.00;;;;;15.80;74.56;99746.72;6312303;20;2752336;-63
2023/09/01 00:18:13;;;;;;;;;8.50;8.00;;;;;16.33;73.35;99741.38;6281215;20;2748338;-62
2023/09/01 00:20:41;;;;;;;;;9.00;7.00;;;;;16.28;73.15;99749.03;6285159;20;2746104;-63
2023/09/01 00:23:11;;;;;;;;;8.00;8.00;;;;;16.30;73.17;99749.78;6307178;20;2756546;-63
2023/09/01 00:25:41;;;;;;;;;9.00;9.00;;;;;16.30;73.18;99744.34;6333936;20;2741926;-62
2023/09/01 00:28:10;;;;;;;;;9.60;8.00;;;;;15.86;74.45;99754.34;6333115;20;2749243;-63
2023/09/01 00:30:59;;;;;;;;;9.00;7.00;;;;;15.76;74.52;99751.50;6276252;20;2746136;-63
2023/09/01 00:33:30;;;;;;;;;9.33;9.33;;;;;15.74;74.37;99747.22;6279612;20;2753446;-62
2023/09/01 00:35:59;;;;;;;;;8.00;8.00;;;;;15.45;75.19;99739.59;6315330;20;2764882;-64
2023/09/01 00:38:31;;;;;;;;;8.00;8.00;;;;;15.48;75.31;99743.88;6305010;20;2749393;-63
2023/09/01 00:40:59;;;;;;;;;11.67;10.33;;;;;15.49;75.44;99738.38;6308372;20;2788920;-63
2023/09/01 00:43:28;;;;;;;;;10.00;10.00;;;;;15.81;74.11;99745.72;6311273;20;2783861;-63
2023/09/01 00:45:56;;;;;;;;;11.50;11.00;;;;;15.65;75.09;99745.25;6318575;20;2780469;-64
2023/09/01 00:48:26;;;;;;;;;9.00;9.00;;;;;15.71;75.12;99752.88;6281341;20;2759176;-64
2023/09/01 00:50:54;;;;;;;;;8.00;8.00;;;;;15.68;75.14;99753.09;6281120;20;2748279;-64
2023/09/01 00:53:22;;;;;;;;;9.00;9.00;;;;;15.70;75.50;99745.75;6285479;20;2742101;-63
2023/09/01 00:55:52;;;;;;;;;7.00;7.00;;;;;15.96;74.65;99751.75;6284696;20;2746204;-63
2023/09/01 00:58:20;;;;;;;;;10.00;8.00;;;;;16.33;74.24;99757.63;6280089;20;2761698;-60
2023/09/01 01:00:50;;;;;;;;;6.80;6.80;;;;;16.28;73.86;99761.72;6311024;20;2741948;-63
2023/09/01 01:03:21;;;;;;;;;9.00;9.00;;;;;16.09;74.49;99752.44;6310436;20;2753975;-63
2023/09/01 01:06:42;;;;;;;;;8.20;8.20;;;;;16.13;74.58;99759.31;6336196;20;2748318;-63
2023/09/01 01:09:35;;;;;;;;;7.00;7.00;;;;;16.17;74.06;99751.78;6335175;20;2732632;-63
2023/09/01 01:12:28;;;;;;;;;8.80;8.80;;;;;16.20;73.92;99754.25;6340677;20;2733639;-62
2023/09/01 01:15:00;;;;;;;;;7.80;6.40;;;;;16.14;74.17;99754.72;6340829;20;2742084;-63
2023/09/01 01:17:29;;;;;;;;;7.00;7.00;;;;;16.32;73.75;99758.59;6311550;20;2731546;-63
2023/09/01 01:20:15;;;;;;;;;6.00;4.00;;;;;16.29;73.84;99758.88;6286109;20;2728513;-63
2023/09/01 01:23:06;;;;;;;;;8.00;8.00;;;;;16.28;73.98;99762.59;6284643;20;2740003;-64
2023/09/01 01:25:34;;;;;;;;;6.50;6.50;;;;;16.48;73.86;99763.59;6286737;20;2742031;-62
2023/09/01 01:28:08;;;;;;;;;8.00;6.00;;;;;16.24;73.77;99762.00;6308440;20;2740976;-65
2023/09/01 01:30:38;;;;;;;;;9.00;9.00;;;;;16.38;74.21;99762.69;6315096;20;2737293;-64
2023/09/01 01:33:36;;;;;;;;;8.00;6.50;;;;;16.38;74.26;99759.97;6312341;20;2730507;-63
2023/09/01 01:36:49;;;;;;;;;6.80;6.80;;;;;16.22;74.69;99765.81;6306476;20;2736834;-64
2023/09/01 01:39:25;;;;;;;;;8.00;6.60;;;;;15.91;74.71;99765.66;6335847;20;2732698;-63
2023/09/01 01:42:09;;;;;;;;;6.60;6.60;;;;;15.97;74.33;99764.28;6338375;20;2745103;-64
2023/09/01 01:44:46;;;;;;;;;6.00;6.00;;;;;15.74;74.80;99758.03;6336349;20;2744064;-63
2023/09/01 01:47:19;;;;;;;;;7.80;7.80;;;;;15.29;75.39;99763.47;6338894;20;2736736;-64
2023/09/01 01:49:49;;;;;;;;;6.40;5.40;;;;;15.20;76.10;99758.81;6337351;20;2732584;-64
2023/09/01 01:52:20;;;;;;;;;7.25;7.25;;;;;15.21;76.09;99760.50;6355624;20;2477688;-63
2023/09/01 01:54:50;;;;;;;;;8.80;8.80;;;;;14.90;76.91;99768.31;6336279;20;2747197;-64
2023/09/01 01:57:20;;;;;;;;;8.00;8.00;;;;;14.99;76.45;99769.47;6335972;20;2752579;-63
2023/09/01 01:59:50;;;;;;;;;7.80;7.80;;;;;14.69;76.66;99768.16;6304890;20;2747123;-63
2023/09/01 02:02:18;;;;;;;;;9.00;9.00;;;;;14.56;77.04;99768.25;6312347;20;2759688;-62
2023/09/01 02:04:48;;;;;;;;;9.20;7.80;;;;;14.54;77.31;99772.06;6338290;20;2765008;-64
2023/09/01 02:07:17;;;;;;;;;8.67;8.67;;;;;14.52;77.40;99768.56;6280267;20;2748276;-63
2023/09/01 02:09:46;;;;;;;;;10.60;9.00;;;;;14.55;77.38;99753.00;6339235;20;2778417;-63
2023/09/01 02:12:14;;;;;;;;;11.00;10.00;;;;;14.30;77.76;99762.13;6282081;20;2783659;-63
2023/09/01 02:14:44;;;;;;;;;10.60;10.60;;;;;14.32;77.81;99761.97;6305555;20;2796172;-63
2023/09/01 02:17:12;;;;;;;;;11.00;10.67;;;;;14.09;78.14;99767.28;6280765;20;2787935;-63
2023/09/01 02:19:40;;;;;;;;;12.50;10.50;;;;;14.35;77.91;99767.16;6315694;20;2793998;-63
2023/09/01 02:22:08;;;;;;;;;9.50;9.50;;;;;14.21;78.01;99766.34;6289016;20;2771255;-63
2023/09/01 02:24:36;;;;;;;;;9.00;9.00;;;;;14.19;78.19;99768.34;6281218;20;2750287;-63
2023/09/01 02:27:04;;;;;;;;;11.00;11.00;;;;;14.38;77.98;99764.25;6283242;20;2788421;-63
2023/09/01 02:29:33;;;;;;;;;10.00;10.00;;;;;14.46;77.59;99764.50;6279976;20;3505534;-63
2023/09/01 02:32:01;;;;;;;;;10.50;9.50;;;;;14.89;77.55;99762.06;6313951;20;2781597;-63
2023/09/01 02:34:31;;;;;;;;;10.67;10.67;;;;;14.63;77.67;99763.22;6279989;20;2792002;-63
2023/09/01 02:36:59;;;;;;;;;11.50;10.00;;;;;14.45;77.83;99769.03;6310051;20;2786865;-62
2023/09/01 02:39:28;;;;;;;;;11.33;11.33;;;;;14.40;78.10;99776.66;6277401;20;3503472;-64
2023/09/01 02:42:00;;;;;;;;;10.00;10.00;;;;;14.45;78.05;99776.28;6311258;20;2785906;-64
2023/09/01 02:44:28;;;;;;;;;9.00;9.00;;;;;14.75;77.65;99780.34;6310016;20;2742996;-64
2023/09/01 02:46:55;;;;;;;;;13.00;10.00;;;;;14.42;77.95;99779.22;6281183;20;2781672;-64
2023/09/01 02:49:23;;;;;;;;;12.50;8.50;;;;;14.22;78.12;99781.59;6284181;20;2767357;-64
2023/09/01 02:51:51;;;;;;;;;11.50;9.50;;;;;14.12;78.40;99783.25;6279932;20;2774267;-64
2023/09/01 02:54:19;;;;;;;;;12.00;11.00;;;;;14.28;78.08;99789.22;6281489;20;2794093;-64
2023/09/01 02:56:47;;;;;;;;;12.00;12.00;;;;;14.28;78.19;99788.38;6279741;20;3525403;-65
2023/09/01 02:59:19;;;;;;;;;8.57;8.14;;;;;14.01;78.43;99788.59;6354256;20;3475379;-64
2023/09/01 03:01:47;;;;;;;;;12.67;10.00;;;;;13.91;78.82;99788.41;6311946;20;2787819;-65
2023/09/01 03:04:17;;;;;;;;;9.80;8.40;;;;;14.11;78.57;99784.22;6338050;20;2777484;-64
2023/09/01 03:06:45;;;;;;;;;8.00;8.00;;;;;14.16;78.65;99784.75;6276657;20;2748273;-64
2023/09/01 03:09:13;;;;;;;;;12.00;8.50;;;;;14.32;78.29;99794.41;6280517;20;2769033;-64
2023/09/01 03:11:41;;;;;;;;;10.50;10.00;;;;;14.45;77.56;99795.19;6280874;20;2789805;-64
2023/09/01 03:14:08;;;;;;;;;11.50;8.50;;;;;14.23;78.12;99794.13;6282457;20;2764901;-64
2023/09/01 03:16:37;;;;;;;;;11.33;10.00;;;;;14.58;77.81;99790.59;6279086;20;2780520;-65
2023/09/01 03:19:07;;;;;;;;;10.00;10.00;;;;;14.11;78.11;99792.31;6335028;20;2794248;-63
2023/09/01 03:21:35;;;;;;;;;12.00;10.00;;;;;14.28;78.12;99794.63;6286033;20;2785757;-65
2023/09/01 03:24:03;;;;;;;;;12.00;12.00;;;;;14.23;78.38;99787.84;6284790;20;2787830;-64
2023/09/01 03:26:32;;;;;;;;;11.33;11.33;;;;;14.39;78.25;99791.13;6276134;20;3539327;-64
2023/09/01 03:29:02;;;;;;;;;13.00;10.00;;;;;14.25;78.19;99788.59;6313290;20;2789888;-65
2023/09/01 03:31:31;;;;;;;;;10.00;10.00;;;;;14.39;78.01;99787.56;6278039;20;2785776;-64
2023/09/01 03:33:59;;;;;;;;;10.50;9.00;;;;;14.23;78.08;99787.84;6278915;20;2761811;-65
2023/09/01 03:36:28;;;;;;;;;12.00;10.00;;;;;14.04;78.48;99794.63;6279760;20;3512940;-64
2023/09/01 03:38:59;;;;;;;;;10.33;10.33;;;;;13.96;78.71;99793.47;6309322;20;3513835;-64
2023/09/01 03:41:27;;;;;;;;;10.00;10.00;;;;;14.21;78.60;99795.19;6318024;20;2792044;-64
2023/09/01 03:43:56;;;;;;;;;13.00;13.00;;;;;14.14;78.46;99797.53;6278808;20;2793037;-64
2023/09/01 03:46:24;;;;;;;;;15.33;12.33;;;;;14.05;78.43;99795.50;6310795;20;3511710;-64
2023/09/01 03:48:53;;;;;;;;;17.00;14.67;;;;;14.07;78.78;99795.38;6308833;20;3542976;-62
2023/09/01 03:51:22;;;;;;;;;13.00;12.00;;;;;13.62;78.73;99790.56;6277657;20;3527363;-63
2023/09/01 03:53:51;;;;;;;;;11.00;11.00;;;;;13.55;79.07;99791.97;6274890;20;3521093;-63
2023/09/01 03:56:20;;;;;;;;;12.50;12.50;;;;;13.44;79.64;99791.88;6312958;20;2799369;-64
2023/09/01 03:58:49;;;;;;;;;15.00;14.67;;;;;13.55;79.55;99800.91;6275426;20;3531551;-63
2023/09/01 04:01:17;;;;;;;;;16.33;14.00;;;;;13.43;79.41;99806.31;6309261;20;3544042;-63
2023/09/01 04:03:48;;;;;;;;;16.00;16.00;;;;;13.32;79.63;99801.69;6280482;20;3560753;-63
2023/09/01 04:06:17;;;;;;;;;14.33;14.00;;;;;13.30;79.90;99799.13;6278242;20;3533697;-62
2023/09/01 04:08:46;;;;;;;;;17.67;14.67;;;;;13.09;79.93;99803.31;6308129;20;3554494;-63
2023/09/01 04:11:14;;;;;;;;;15.00;15.00;;;;;13.43;79.62;99812.59;6278621;20;2494026;-64
2023/09/01 04:13:42;;;;;;;;;15.50;14.00;;;;;13.56;78.99;99804.47;6281267;20;2812789;-63
2023/09/01 04:16:11;;;;;;;;;16.00;16.00;;;;;13.25;79.65;99812.03;6279182;20;2823180;-63
2023/09/01 04:18:40;;;;;;;;;17.00;16.00;;;;;13.35;79.85;99810.44;6283659;20;3556511;-63
2023/09/01 04:21:09;;;;;;;;;18.00;18.00;;;;;13.41;79.73;99802.91;6282687;20;2822914;-63
2023/09/01 04:23:40;;;;;;;;;22.00;19.50;;;;;13.31;79.74;99803.53;6278031;20;2839879;-63
2023/09/01 04:26:09;;;;;;;;;17.50;17.50;;;;;13.76;79.63;99806.59;6281317;20;2824274;-63
2023/09/01 04:28:38;;;;;;;;;21.00;19.50;;;;;13.38;79.78;99802.13;6281537;20;2846137;-63
2023/09/01 04:31:36;;;;;;;;;15.00;15.00;;;;;13.17;79.95;99800.94;6282444;20;2500521;-64
2023/09/01 04:34:04;;;;;;;;;16.00;15.00;;;;;13.30;79.81;99809.06;6287987;20;2810734;-63
2023/09/01 04:36:33;;;;;;;;;18.00;17.00;;;;;13.65;79.34;99801.13;6284722;20;2833625;-65
2023/09/01 04:39:16;;;;;;;;;15.33;15.33;;;;;13.65;79.31;99811.91;6284107;20;2821146;-64
2023/09/01 04:41:45;;;;;;;;;15.00;15.00;;;;;13.84;79.34;99814.97;6312960;20;3550375;-65
2023/09/01 04:44:14;;;;;;;;;15.00;14.00;;;;;13.80;79.60;99810.78;6312337;20;2803395;-65
2023/09/01 04:46:42;;;;;;;;;17.00;17.00;;;;;14.51;79.02;99813.66;6281398;20;2833620;-65
2023/09/01 04:49:11;;;;;;;;;18.50;17.00;;;;;15.09;78.08;99819.16;6281326;20;2820070;-64
2023/09/01 04:51:40;;;;;;;;;14.00;14.00;;;;;15.09;77.47;99824.56;6281644;20;3534697;-64
2023/09/01 04:54:08;;;;;;;;;15.50;14.00;;;;;15.07;77.53;99835.47;6278512;20;2492056;-64
2023/09/01 04:56:36;;;;;;;;;14.00;14.00;;;;;15.82;76.83;99828.66;6281519;20;3524794;-64
2023/09/01 04:59:06;;;;;;;;;11.33;10.67;;;;;16.85;75.80;99836.41;6277706;20;2783608;-64
2023/09/01 05:01:34;;;;;;;;;12.00;12.00;;;;;17.80;72.78;99844.44;6310217;20;3509628;-64
2023/09/01 05:04:05;;;;;;;;;11.67;11.00;;;;;16.05;76.45;99837.63;6313152;20;3526418;-64
2023/09/01 05:06:38;;;;;;;;;9.60;9.60;;;;;16.06;76.43;99838.47;6356456;20;1930523;-64
2023/09/01 05:09:06;;;;;;;;;14.00;11.00;;;;;15.91;76.78;99837.91;6316127;20;2793108;-63
2023/09/01 05:11:35;;;;;;;;;17.00;11.33;;;;;15.90;77.11;99837.03;6281141;20;3524221;-64
2023/09/01 05:14:03;;;;;;;;;11.33;11.33;;;;;15.62;77.40;99840.22;6311861;20;3511707;-63
2023/09/01 05:16:31;;;;;;;;;9.50;9.50;;;;;15.45;77.59;99850.53;6308272;20;2771082;-64
2023/09/01 05:19:01;;;;;;;;;9.80;8.80;;;;;15.74;77.04;99850.94;6306606;20;2777521;-64
2023/09/01 05:21:29;;;;;;;;;10.00;10.00;;;;;15.82;76.82;99855.75;6279966;20;2798238;-64
2023/09/01 05:23:59;;;;;;;;;9.00;8.00;;;;;15.79;76.95;99851.44;6339813;20;2740087;-64
2023/09/01 05:26:28;;;;;;;;;9.33;9.33;;;;;15.78;76.75;99848.88;6310043;20;2762851;-66
2023/09/01 05:28:57;;;;;;;;;7.20;7.20;;;;;15.91;76.22;99852.31;6335575;20;2735742;-63
2023/09/01 05:31:27;;;;;;;;;10.40;9.20;;;;;15.57;76.79;99854.13;6336153;20;2777536;-64
2023/09/01 05:33:55;;;;;;;;;8.33;8.33;;;;;15.92;76.74;99854.00;6280322;20;3454555;-63
2023/09/01 05:36:23;;;;;;;;;9.50;8.50;;;;;16.04;76.42;99856.72;6320671;20;2761824;-63
2023/09/01 05:38:52;;;;;;;;;8.00;8.00;;;;;16.22;76.44;99869.63;6279335;20;2744098;-64
2023/09/01 05:41:20;;;;;;;;;9.00;9.00;;;;;16.32;76.55;99867.00;6321470;20;2735709;-64
2023/09/01 05:43:47;;;;;;;;;10.00;10.00;;;;;16.40;76.32;99872.66;6285571;20;2787938;-64
2023/09/01 05:46:17;;;;;;;;;8.20;8.20;;;;;16.59;76.01;99873.84;6306480;20;2744073;-64
2023/09/01 05:48:45;;;;;;;;;11.00;10.00;;;;;16.40;76.51;99875.38;6317807;20;2794021;-64
2023/09/01 05:51:12;;;;;;;;;8.00;8.00;;;;;16.61;76.70;99879.97;6281269;20;2752349;-64
2023/09/01 05:53:41;;;;;;;;;9.00;8.00;;;;;16.64;76.42;99883.31;6281747;20;2760818;-63
2023/09/01 05:56:13;;;;;;;;;9.00;9.00;;;;;16.61;77.15;99869.13;6336026;20;2747161;-62
2023/09/01 05:58:42;;;;;;;;;11.00;9.00;;;;;16.88;76.68;99872.28;6309879;20;3478464;-63
2023/09/01 06:01:12;;;;;;;;;9.80;8.60;;;;;17.28;75.71;99874.28;6335801;20;2758619;-63
2023/09/01 06:03:41;;;;;;;;;9.40;9.40;;;;;17.25;75.60;99869.13;6305527;20;2764872;-64
2023/09/01 06:06:11;;;;;;;;;9.20;9.20;;;;;17.29;75.41;99873.28;6306779;20;2771116;-64
2023/09/01 06:08:41;;;;;;;;;7.40;7.40;;;;;18.32;74.36;99876.91;6305354;20;2744014;-64
2023/09/01 06:11:13;;;;;;;;;8.33;8.33;;;;;18.99;70.76;99876.16;6310814;20;3461763;-66
2023/09/01 06:13:42;;;;;;;;;5.00;5.00;;;;;18.42;72.26;99877.78;6310604;20;2737755;-66
2023/09/01 06:16:11;;;;;;;;;7.20;7.20;;;;;19.72;68.16;99883.78;6335648;20;2735680;-65
2023/09/01 06:18:41;;;;;;;;;8.00;7.00;;;;;21.38;63.51;99884.50;6338086;20;2736776;-64
2023/09/01 06:21:10;;;;;;;;;7.67;7.33;;;;;20.50;64.37;99881.53;6321234;20;2752406;-65
2023/09/01 06:23:44;;;;;;;;;6.20;6.00;;;;;20.89;63.83;99883.19;6337741;20;2741946;-64
2023/09/01 06:26:20;;;;;;;;;6.00;6.00;;;;;22.37;59.85;99896.84;6282674;20;2738940;-64
2023/09/01 06:28:50;;;;;;;;;12.40;9.80;;;;;22.61;57.01;99892.47;6336231;20;2794043;-64
2023/09/01 06:31:19;;;;;;;;;7.20;7.20;;;;;23.23;55.66;99901.16;6309413;20;2754450;-64
2023/09/01 06:33:48;;;;;;;;;12.00;10.50;;;;;21.50;61.48;99896.00;6311376;20;2791178;-64
2023/09/01 06:36:19;;;;;;;;;9.67;8.67;;;;;22.91;58.45;99905.56;6317790;20;2762911;-62
2023/09/01 06:38:49;;;;;;;;;9.67;7.00;;;;;24.19;54.07;99908.53;6316494;20;2763939;-62
2023/09/01 06:41:18;;;;;;;;;26.00;26.00;;;;;23.11;55.59;99905.25;6313190;20;3588881;-63
2023/09/01 06:43:47;;;;;;;;;7.80;7.00;;;;;22.28;60.30;99897.84;6307062;20;2731568;-61
2023/09/01 06:46:16;;;;;;;;;7.00;6.00;;;;;22.52;58.94;99895.19;6313370;20;2739874;-60
2023/09/01 06:48:48;;;;;;;;;8.00;7.00;;;;;23.38;56.99;99902.19;6336956;20;2750328;-58
2023/09/01 06:51:18;;;;;;;;;6.20;6.20;;;;;24.57;52.50;99896.94;6306478;20;2741990;-58
2023/09/01 06:53:46;;;;;;;;;13.33;12.00;;;;;25.59;50.61;99898.44;6286054;20;2796121;-59
2023/09/01 06:56:15;;;;;;;;;12.33;11.33;;;;;27.83;45.63;99909.84;6309720;20;3498270;-59
2023/09/01 06:58:44;;;;;;;;;13.67;13.33;;;;;29.07;43.91;99919.00;6314754;20;3529579;-58
2023/09/01 07:01:15;;;;;;;;;20.67;19.67;;;;;29.78;43.26;99922.25;6285006;20;3559628;-59
2023/09/01 07:03:44;;;;;;;;;11.00;8.67;;;;;29.42;40.91;99913.28;6282537;20;3486837;-59
2023/09/01 07:06:12;;;;;;;;;8.00;8.00;;;;;28.00;44.22;99922.28;6308544;20;3459808;-60
2023/09/01 07:08:44;;;;;;;;;299.29;244.29;;;;;28.63;43.43;99931.38;6306136;20;5311666;-57
2023/09/01 07:11:14;;;;;;;;;7.00;7.00;;;;;30.37;40.44;99936.03;6276249;20;2744088;-59
2023/09/01 07:13:43;;;;;;;;;3.67;3.67;;;;;29.39;40.05;99946.06;6318434;20;2742096;-58
2023/09/01 07:16:12;;;;;;;;;4.67;4.33;;;;;29.29;40.48;99946.47;6315978;20;2731650;-59
2023/09/01 07:18:46;;;;;;;;;50.25;40.38;;;;;29.69;39.86;99952.91;6327694;20;3621173;-60
2023/09/01 07:21:14;;;;;;;;;13.00;12.00;;;;;30.66;37.52;99958.75;6289667;20;2487780;-60
2023/09/01 07:23:44;;;;;;;;;26.75;23.50;;;;;31.76;35.79;99971.63;6313836;20;3586895;-59
2023/09/01 07:26:12;;;;;;;;;11.33;8.33;;;;;31.18;36.83;99970.69;6319504;20;2769054;-59
2023/09/01 07:28:41;;;;;;;;;7.00;7.00;;;;;29.68;36.77;99967.84;6309606;20;3462881;-59
2023/09/01 07:31:12;;;;;;;;;6.33;3.00;;;;;24.70;44.38;99955.72;6314974;20;2751363;-58
2023/09/01 07:33:42;;;;;;;;;2.60;2.60;;;;;24.27;45.97;99948.81;6339316;20;2747287;-58
2023/09/01 07:36:12;;;;;;;;;3.00;3.00;;;;;24.83;45.04;99951.53;6305490;20;2746142;-58
2023/09/01 07:38:42;;;;;;;;;3.00;3.00;;;;;24.52;45.49;99957.88;6306336;20;2749240;-57
2023/09/01 07:41:11;;;;;;;;;3.80;3.00;;;;;24.63;45.57;99956.63;6305897;20;2745116;-58
2023/09/01 07:43:41;;;;;;;;;8.40;5.40;;;;;24.81;45.32;99953.63;6309621;20;2736763;-57
2023/09/01 07:46:09;;;;;;;;;4.67;4.00;;;;;24.36;46.10;99960.66;6281511;20;2742012;-58
2023/09/01 07:48:39;;;;;;;;;3.60;2.20;;;;;24.27;46.46;99957.06;6337240;20;2749281;-57
2023/09/01 07:51:09;;;;;;;;;2.80;2.80;;;;;24.30;46.27;99963.06;6306409;20;2730539;-57
2023/09/01 07:53:39;;;;;;;;;3.00;3.00;;;;;24.85;46.39;99960.44;6340340;20;2749699;-56
2023/09/01 07:56:13;;;;;;;;;4.20;3.40;;;;;24.28;46.91;99959.63;6312300;20;2740982;-57
2023/09/01 07:58:42;;;;;;;;;2.00;2.00;;;;;25.19;47.18;99960.94;6310211;20;2728496;-57
2023/09/01 08:01:12;;;;;;;;;2.80;2.20;;;;;23.88;47.75;99964.19;6342835;20;2745163;-55
2023/09/01 08:03:42;;;;;;;;;3.00;3.00;;;;;23.92;47.87;99958.38;6290228;20;2734748;-57
2023/09/01 08:06:12;;;;;;;;;4.00;4.00;;;;;24.68;47.50;99955.03;6341648;20;2743132;-55
2023/09/01 08:08:42;;;;;;;;;5.00;3.60;;;;;23.68;48.29;99957.31;6310861;20;2754461;-56
2023/09/01 08:11:11;;;;;;;;;3.60;3.60;;;;;24.80;47.88;99955.47;6310086;20;2745079;-56
2023/09/01 08:13:41;;;;;;;;;3.80;3.80;;;;;24.88;47.65;99957.31;6313020;20;2748226;-56
2023/09/01 08:16:10;;;;;;;;;3.40;3.40;;;;;24.56;48.44;99964.69;6312404;20;2735719;-55
2023/09/01 08:18:40;;;;;;;;;4.40;3.00;;;;;23.85;49.52;99961.78;6341212;20;2732636;-52
2023/09/01 08:21:10;;;;;;;;;3.60;3.60;;;;;24.15;49.31;99956.59;6343770;20;2743117;-53
2023/09/01 08:23:40;;;;;;;;;3.60;3.60;;;;;24.02;48.70;99948.06;6311007;20;2741973;-55
2023/09/01 08:26:09;;;;;;;;;4.40;3.60;;;;;25.26;48.14;99957.47;6306080;20;2749346;-57
2023/09/01 08:28:39;;;;;;;;;4.40;3.80;;;;;25.24;48.22;99957.66;6310733;20;2748475;-58
2023/09/01 08:31:09;;;;;;;;;7.80;6.00;;;;;25.83;47.96;99957.84;6311909;20;2724283;-58
2023/09/01 08:33:38;;;;;;;;;6.67;6.67;;;;;25.50;48.88;99960.03;6316625;20;2735733;-58
2023/09/01 08:36:07;;;;;;;;;3.00;3.00;;;;;24.55;49.09;99951.16;6318050;20;2748198;-53
2023/09/01 08:38:36;;;;;;;;;3.40;3.40;;;;;25.03;49.27;99950.03;6340515;20;2746159;-60
2023/09/01 08:41:07;;;;;;;;;4.20;4.20;;;;;25.74;47.91;99958.94;6309648;20;2750319;-55
2023/09/01 08:43:39;;;;;;;;;4.20;4.00;;;;;24.68;49.29;99955.03;6313052;20;2748202;-57
2023/09/01 08:46:07;;;;;;;;;5.00;5.00;;;;;24.65;49.19;99958.16;6285442;20;2741953;-57
2023/09/01 08:48:42;;;;;;;;;7.67;5.00;;;;;25.59;48.75;99947.94;6322422;20;2741946;-57
2023/09/01 08:51:14;;;;;;;;;4.00;4.00;;;;;25.35;48.72;99961.84;6343888;20;2735887;-57
2023/09/01 08:53:45;;;;;;;;;4.00;4.00;;;;;25.45;48.45;99954.22;6310306;20;2746196;-55
2023/09/01 08:56:14;;;;;;;;;6.20;4.60;;;;;26.20;47.23;99952.50;6309540;20;2741965;-57
2023/09/01 08:58:46;;;;;;;;;2.67;2.67;;;;;26.10;47.51;99961.03;6287150;20;2749331;-55
2023/09/01 09:01:15;;;;;;;;;3.67;3.67;;;;;25.91;48.00;99950.56;6317570;20;2744033;-56
2023/09/01 09:03:44;;;;;;;;;6.00;4.33;;;;;26.22;47.07;99947.66;6317392;20;2741955;-53
2023/09/01 09:06:14;;;;;;;;;4.00;4.00;;;;;25.23;48.96;99955.09;6318165;20;2748214;-56
2023/09/01 09:08:43;;;;;;;;;4.00;4.00;;;;;25.24;49.33;99943.91;6317749;20;2745080;-57
2023/09/01 09:11:14;;;;;;;;;4.00;4.00;;;;;25.26;47.89;99952.84;6321694;20;2732768;-56
2023/09/01 09:13:43;;;;;;;;;3.67;3.67;;;;;25.00;49.24;99950.41;6318169;20;2742447;-57
2023/09/01 09:16:24;;;;;;;;;4.33;4.33;;;;;24.47;49.26;99952.06;6314786;20;2745084;-53
2023/09/01 09:18:54;;;;;;;;;3.60;3.60;;;;;24.78;49.71;99951.19;6336910;20;2745102;-54
2023/09/01 09:21:28;;;;;;;;;4.00;4.00;;;;;24.42;49.06;99951.69;6310390;20;2743049;-55
2023/09/01 09:24:03;;;;;;;;;6.20;5.00;;;;;23.94;50.23;99953.56;6311151;20;2742995;-53
2023/09/01 09:26:57;;;;;;;;;2.00;2.00;;;;;24.50;48.71;99951.69;6284530;20;2728442;-56
2023/09/01 09:29:27;;;;;;;;;2.00;2.00;;;;;24.28;49.18;99954.16;6328372;20;2755482;-53
2023/09/01 09:31:55;;;;;;;;;5.00;4.33;;;;;24.71;48.45;99942.84;6276519;20;2738815;-54
2023/09/01 09:34:27;;;;;;;;;3.20;3.00;;;;;24.34;49.46;99943.50;6329718;20;2746283;-51
2023/09/01 09:36:55;;;;;;;;;3.00;3.00;;;;;24.27;49.25;99946.94;6282656;20;2745176;-52
2023/09/01 09:39:32;;;;;;;;;4.20;3.40;;;;;24.77;49.91;99944.84;6334966;20;2747267;-55
2023/09/01 09:42:03;;;;;;;;;5.20;4.00;;;;;24.66;49.65;99946.13;6305444;20;2748273;-56
2023/09/01 09:44:34;;;;;;;;;6.00;4.00;;;;;24.79;50.06;99939.19;6310125;20;2729441;-55
2023/09/01 09:47:14;;;;;;;;;2.00;2.00;;;;;24.73;49.91;99938.88;6342424;20;2735718;-55
2023/09/01 09:49:45;;;;;;;;;3.33;3.33;;;;;25.10;49.33;99933.69;6285136;20;2747180;-54
2023/09/01 09:52:17;;;;;;;;;5.33;2.33;;;;;24.97;49.01;99937.03;6322670;20;2750411;-54
2023/09/01 09:54:50;;;;;;;;;4.00;4.00;;;;;24.96;50.02;99936.19;6334435;20;2730575;-57
2023/09/01 09:57:21;;;;;;;;;4.00;4.00;;;;;25.26;49.40;99936.34;6336383;20;2738779;-57
2023/09/01 10:00:08;;;;;;;;;6.67;4.67;;;;;25.90;48.41;99944.22;6279802;20;2739874;-57
2023/09/01 10:02:48;;;;;;;;;4.00;4.00;;;;;24.60;50.02;99944.09;6331680;20;2748230;-55
2023/09/01 10:05:19;;;;;;;;;3.00;3.00;;;;;24.80;49.43;99935.41;6304928;20;2741950;-55
2023/09/01 10:07:48;;;;;;;;;6.33;6.33;;;;;25.26;48.56;99935.50;6301825;20;2734641;-55
2023/09/01 10:10:18;;;;;;;;;1196.80;423.00;;;;;25.57;48.70;99947.25;6279675;20;3331585;-54
2023/09/01 10:12:48;;;;;;;;;5.80;3.40;;;;;25.35;48.03;99945.38;6306366;20;2746134;-50
2023/09/01 10:15:18;;;;;;;;;622.40;243.60;;;;;25.19;48.85;99946.34;6266896;20;4499173;-55
2023/09/01 10:17:48;;;;;;;;;5.00;3.33;;;;;25.15;48.33;99940.38;6311232;20;2748247;-57
2023/09/01 10:20:20;;;;;;;;;73.33;40.22;;;;;25.43;49.18;99939.78;6306129;20;3660755;-59
2023/09/01 10:22:54;;;;;;;;;109.25;56.38;;;;;25.34;48.72;99932.66;6309879;20;3686714;-60
2023/09/01 10:25:24;;;;;;;;;257.40;138.00;;;;;25.56;46.83;99936.44;6237577;20;4481629;-59
2023/09/01 10:28:12;;;;;;;;;4.67;4.33;;;;;24.89;49.07;99929.69;6312957;20;2743136;-51
2023/09/01 10:30:46;;;;;;;;;5.33;5.33;;;;;25.38;48.52;99928.50;6313632;20;2738857;-60
2023/09/01 10:33:26;;;;;;;;;5.20;4.00;;;;;25.10;49.04;99941.94;6334606;20;2732589;-59
2023/09/01 10:35:59;;;;;;;;;4.40;4.40;;;;;25.31;48.99;99933.03;6335761;20;2743017;-58
2023/09/01 10:38:33;;;;;;;;;4.00;4.00;;;;;25.51;48.19;99933.38;6282700;20;2745173;-57
2023/09/01 10:41:03;;;;;;;;;4.80;4.60;;;;;25.16;48.86;99942.06;6338632;20;2748209;-61
2023/09/01 10:43:41;;;;;;;;;6.80;5.00;;;;;25.23;48.97;99942.22;6307191;20;2740919;-61
2023/09/01 10:46:15;;;;;;;;;5.00;5.00;;;;;25.20;49.22;99928.84;6292551;20;2733664;-63
2023/09/01 10:48:59;;;;;;;;;6.60;5.00;;;;;24.90;49.43;99925.91;6333488;20;2746569;-66
2023/09/01 10:51:30;;;;;;;;;8.00;5.33;;;;;25.57;49.29;99938.16;6289217;20;2739888;-63
2023/09/01 10:54:30;;;;;;;;;61.86;38.00;;;;;25.44;48.97;99933.28;6332261;20;4397200;-63
2023/09/01 10:57:04;;;;;;;;;4.00;4.00;;;;;25.29;48.99;99926.88;6317588;20;2730515;-60
2023/09/01 10:59:36;;;;;;;;;38.83;21.83;;;;;25.62;49.22;99935.72;6335784;20;3630463;-61
2023/09/01 11:02:24;;;;;;;;;28.67;18.00;;;;;25.60;49.72;99922.13;6286972;20;1895154;-59
2023/09/01 11:04:53;;;;;;;;;7.67;7.33;;;;;25.88;49.36;99927.03;6307770;20;2732771;-60
2023/09/01 11:07:21;;;;;;;;;6.00;4.50;;;;;26.10;49.03;99932.66;6310926;20;2737867;-61
2023/09/01 11:09:52;;;;;;;;;5.00;5.00;;;;;26.17;49.75;99933.59;6283660;20;2733709;-63
2023/09/01 11:12:29;;;;;;;;;0.00;0.00;;;;;26.44;48.70;99926.59;6338061;20;2726317;-62
2023/09/01 11:15:03;;;;;;;;;5.00;5.00;;;;;26.34;49.04;99913.09;6336971;20;2743084;-63
2023/09/01 11:17:44;;;;;;;;;4.67;4.67;;;;;25.94;47.94;99911.69;6281627;20;2733693;-64
2023/09/01 11:20:19;;;;;;;;;4.00;3.00;;;;;26.05;49.03;99909.31;6313939;20;2743025;-63
2023/09/01 11:22:48;;;;;;;;;4.80;4.80;;;;;25.70;49.25;99910.00;6338232;20;2733618;-64
2023/09/01 11:25:18;;;;;;;;;4.80;4.40;;;;;26.37;48.54;99900.84;6304409;20;2752391;-63
2023/09/01 11:27:50;;;;;;;;;3.60;3.60;;;;;26.99;47.85;99913.25;6305674;20;2740910;-62
2023/09/01 11:30:21;;;;;;;;;3.33;3.33;;;;;26.32;47.40;99906.94;6281861;20;2740910;-64